sensor_id;sensor_type;location;lat;lon;timestamp;pressure;altitude;pressure_sealevel;temperature;humidity
39129;BME280;24864;49.940;19.770;2023-01-10T00:01:55;75609.31;;;-147.98;100.00
39129;BME280;24864;49.940;19.770;2023-01-10T00:04:23;75613.47;;;-147.98;100.00
39129;BME280;24864;49.940;19.770;2023-01-10T00:06:53;75613.47;;;-147.98;100.00
39129;BME280;24864;49.940;19.770;2023-01-10T00:09:22;75617.63;;;-147.98;100.00
39129;BME280;24864;49.940;19.770;2023-01-10T00:11:50;75617.63;;;-147.98;100.00
39129;BME280;24864;49.940;19.770;2023-01-10T00:14:36;75621.78;;;-147.98;100.00
39129;BME280;24864;49.940;19.770;2023-01-10T00:17:04;75623.84;;;-147.98;100.00
39129;BME280;24864;49.940;19.770;2023-01-10T00:19:32;75628.03;;;-147.98;100.00
39129;BME280;24864;49.940;19.770;2023-01-10T00:22:00;75630.09;;;-147.98;100.00
39129;BME280;24864;49.940;19.770;2023-01-10T00:24:39;75634.25;;;-147.98;100.00
39129;BME280;24864;49.940;19.770;2023-01-10T00:27:08;75638.41;;;-147.98;100.00
39129;BME280;24864;49.940;19.770;2023-01-10T00:29:41;75646.72;;;-147.98;100.00
39129;BME280;24864;49.940;19.770;2023-01-10T00:32:09;75638.41;;;-147.98;100.00
39129;BME280;24864;49.940;19.770;2023-01-10T00:34:37;75642.56;;;-147.98;100.00
39129;BME280;24864;49.940;19.770;2023-01-10T00:37:05;75642.56;;;-147.98;100.00
39129;BME280;24864;49.940;19.770;2023-01-10T00:39:33;75646.72;;;-147.98;100.00
39129;BME280;24864;49.940;19.770;2023-01-10T00:42:03;75642.56;;;-147.98;100.00
39129;BME280;24864;49.940;19.770;2023-01-10T00:44:48;75642.56;;;-147.98;100.00
39129;BME280;24864;49.940;19.770;2023-01-10T00:47:17;75650.88;;;-147.98;100.00
39129;BME280;24864;49.940;19.770;2023-01-10T00:49:45;75657.13;;;-147.98;100.00
39129;BME280;24864;49.940;19.770;2023-01-10T00:52:13;75663.34;;;-147.98;100.00
39129;BME280;24864;49.940;19.770;2023-01-10T00:54:41;75671.66;;;-147.98;100.00
39129;BME280;24864;49.940;19.770;2023-01-10T00:57:10;75679.97;;;-147.98;100.00
39129;BME280;24864;49.940;19.770;2023-01-10T00:59:38;75677.91;;;-147.98;100.00
39129;BME280;24864;49.940;19.770;2023-01-10T01:02:06;75679.97;;;-147.98;100.00
39129;BME280;24864;49.940;19.770;2023-01-10T01:04:34;75684.16;;;-147.98;100.00
39129;BME280;24864;49.940;19.770;2023-01-10T01:07:02;75684.16;;;-147.98;100.00
39129;BME280;24864;49.940;19.770;2023-01-10T01:09:30;75684.16;;;-147.98;100.00
39129;BME280;24864;49.940;19.770;2023-01-10T01:11:58;75690.38;;;-147.98;100.00
39129;BME280;24864;49.940;19.770;2023-01-10T01:14:27;75696.63;;;-147.98;100.00
39129;BME280;24864;49.940;19.770;2023-01-10T01:16:55;75700.78;;;-147.98;100.00
39129;BME280;24864;49.940;19.770;2023-01-10T01:19:23;75692.47;;;-147.98;100.00
39129;BME280;24864;49.940;19.770;2023-01-10T01:21:51;75700.78;;;-147.98;100.00
39129;BME280;24864;49.940;19.770;2023-01-10T01:24:19;75700.78;;;-147.98;100.00
39129;BME280;24864;49.940;19.770;2023-01-10T01:26:48;75713.25;;;-147.98;100.00
39129;BME280;24864;49.940;19.770;2023-01-10T01:29:16;75704.94;;;-147.98;100.00
39129;BME280;24864;49.940;19.770;2023-01-10T01:31:45;75700.78;;;-147.98;100.00
39129;BME280;24864;49.940;19.770;2023-01-10T01:34:14;75702.84;;;-147.98;100.00
39129;BME280;24864;49.940;19.770;2023-01-10T01:36:41;75707.00;;;-147.98;100.00
39129;BME280;24864;49.940;19.770;2023-01-10T01:39:10;75704.94;;;-147.98;100.00
39129;BME280;24864;49.940;19.770;2023-01-10T01:41:38;75704.94;;;-147.98;100.00
39129;BME280;24864;49.940;19.770;2023-01-10T01:44:29;75702.84;;;-147.98;100.00
39129;BME280;24864;49.940;19.770;2023-01-10T01:47:04;75700.78;;;-147.98;100.00
39129;BME280;24864;49.940;19.770;2023-01-10T01:49:35;75707.00;;;-147.98;100.00
39129;BME280;24864;49.940;19.770;2023-01-10T01:52:07;75704.94;;;-147.98;100.00
39129;BME280;24864;49.940;19.770;2023-01-10T01:54:39;75713.25;;;-147.98;100.00
39129;BME280;24864;49.940;19.770;2023-01-10T01:57:11;75719.47;;;-147.98;100.00
39129;BME280;24864;49.940;19.770;2023-01-10T01:59:42;75731.94;;;-147.98;100.00
39129;BME280;24864;49.940;19.770;2023-01-10T02:02:15;75727.78;;;-147.98;100.00
39129;BME280;24864;49.940;19.770;2023-01-10T02:04:49;75738.19;;;-147.98;100.00
39129;BME280;24864;49.940;19.770;2023-01-10T02:07:19;75729.88;;;-147.98;100.00
39129;BME280;24864;49.940;19.770;2023-01-10T02:09:51;75736.13;;;-147.98;100.00
39129;BME280;24864;49.940;19.770;2023-01-10T02:12:20;75744.44;;;-147.98;100.00
39129;BME280;24864;49.940;19.770;2023-01-10T02:14:50;75750.66;;;-147.98;100.00
39129;BME280;24864;49.940;19.770;2023-01-10T02:17:20;75738.19;;;-147.98;100.00
39129;BME280;24864;49.940;19.770;2023-01-10T02:19:50;75748.59;;;-147.98;100.00
39129;BME280;24864;49.940;19.770;2023-01-10T02:28:46;75758.97;;;-147.98;100.00
39129;BME280;24864;49.940;19.770;2023-01-10T02:31:33;75758.97;;;-147.98;100.00
39129;BME280;24864;49.940;19.770;2023-01-10T02:34:08;75763.13;;;-147.98;100.00
39129;BME280;24864;49.940;19.770;2023-01-10T02:36:44;75761.06;;;-147.98;100.00
39129;BME280;24864;49.940;19.770;2023-01-10T02:39:22;75763.13;;;-147.98;100.00
39129;BME280;24864;49.940;19.770;2023-01-10T02:41:55;75754.81;;;-147.98;100.00
39129;BME280;24864;49.940;19.770;2023-01-10T02:44:30;75769.38;;;-147.98;100.00
39129;BME280;24864;49.940;19.770;2023-01-10T02:47:02;75779.75;;;-147.98;100.00
39129;BME280;24864;49.940;19.770;2023-01-10T02:49:41;75786.00;;;-147.98;100.00
39129;BME280;24864;49.940;19.770;2023-01-10T02:52:11;75777.69;;;-147.98;100.00
39129;BME280;24864;49.940;19.770;2023-01-10T02:54:40;75779.75;;;-147.98;100.00
39129;BME280;24864;49.940;19.770;2023-01-10T02:57:29;75786.00;;;-147.98;100.00
39129;BME280;24864;49.940;19.770;2023-01-10T03:00:29;75788.09;;;-147.98;100.00
39129;BME280;24864;49.940;19.770;2023-01-10T03:03:11;75792.25;;;-147.98;100.00
39129;BME280;24864;49.940;19.770;2023-01-10T03:05:53;75788.09;;;-147.98;100.00
39129;BME280;24864;49.940;19.770;2023-01-10T03:08:26;75794.31;;;-147.98;100.00
39129;BME280;24864;49.940;19.770;2023-01-10T03:10:59;75798.47;;;-147.98;100.00
39129;BME280;24864;49.940;19.770;2023-01-10T03:13:33;75804.72;;;-147.98;100.00
39129;BME280;24864;49.940;19.770;2023-01-10T03:16:06;75804.72;;;-147.98;100.00
39129;BME280;24864;49.940;19.770;2023-01-10T03:18:37;75813.03;;;-147.98;100.00
39129;BME280;24864;49.940;19.770;2023-01-10T03:21:10;75804.72;;;-147.98;100.00
39129;BME280;24864;49.940;19.770;2023-01-10T03:23:39;75813.03;;;-147.98;100.00
39129;BME280;24864;49.940;19.770;2023-01-10T03:26:08;75815.09;;;-147.98;100.00
39129;BME280;24864;49.940;19.770;2023-01-10T03:28:43;75823.41;;;-147.98;100.00
39129;BME280;24864;49.940;19.770;2023-01-10T03:31:16;75825.50;;;-147.98;100.00
39129;BME280;24864;49.940;19.770;2023-01-10T03:33:45;75829.66;;;-147.98;100.00
39129;BME280;24864;49.940;19.770;2023-01-10T03:36:23;75817.19;;;-147.98;100.00
39129;BME280;24864;49.940;19.770;2023-01-10T03:38:55;75821.34;;;-147.98;100.00
39129;BME280;24864;49.940;19.770;2023-01-10T03:41:32;75827.56;;;-147.98;100.00
39129;BME280;24864;49.940;19.770;2023-01-10T03:44:09;75829.66;;;-147.98;100.00
39129;BME280;24864;49.940;19.770;2023-01-10T03:46:59;75837.97;;;-147.98;100.00
39129;BME280;24864;49.940;19.770;2023-01-10T03:49:32;75837.97;;;-147.98;100.00
39129;BME280;24864;49.940;19.770;2023-01-10T03:52:02;75850.44;;;-147.98;100.00
39129;BME280;24864;49.940;19.770;2023-01-10T03:54:31;75842.13;;;-147.98;100.00
39129;BME280;24864;49.940;19.770;2023-01-10T03:56:59;75865.00;;;-147.98;100.00
39129;BME280;24864;49.940;19.770;2023-01-10T03:59:28;75865.00;;;-147.98;100.00
39129;BME280;24864;49.940;19.770;2023-01-10T04:01:56;75871.22;;;-147.98;100.00
39129;BME280;24864;49.940;19.770;2023-01-10T04:04:25;75879.56;;;-147.98;100.00
39129;BME280;24864;49.940;19.770;2023-01-10T04:06:52;75898.25;;;-147.98;100.00
39129;BME280;24864;49.940;19.770;2023-01-10T04:09:22;75894.09;;;-147.98;100.00
39129;BME280;24864;49.940;19.770;2023-01-10T04:11:50;75906.56;;;-147.98;100.00
39129;BME280;24864;49.940;19.770;2023-01-10T04:14:18;75898.25;;;-147.98;100.00
39129;BME280;24864;49.940;19.770;2023-01-10T04:16:46;75904.50;;;-147.98;100.00
39129;BME280;24864;49.940;19.770;2023-01-10T04:19:14;75908.66;;;-147.98;100.00
39129;BME280;24864;49.940;19.770;2023-01-10T04:21:42;75900.34;;;-147.98;100.00
39129;BME280;24864;49.940;19.770;2023-01-10T04:24:10;75916.97;;;-147.98;100.00
39129;BME280;24864;49.940;19.770;2023-01-10T04:26:40;75912.81;;;-147.98;100.00
39129;BME280;24864;49.940;19.770;2023-01-10T04:29:08;75916.97;;;-147.98;100.00
39129;BME280;24864;49.940;19.770;2023-01-10T04:31:36;75927.38;;;-147.98;100.00
39129;BME280;24864;49.940;19.770;2023-01-10T04:34:05;75937.75;;;-147.98;100.00
39129;BME280;24864;49.940;19.770;2023-01-10T04:36:34;75933.59;;;-147.98;100.00
39129;BME280;24864;49.940;19.770;2023-01-10T04:39:02;75929.44;;;-147.98;100.00
39129;BME280;24864;49.940;19.770;2023-01-10T04:41:31;75937.75;;;-147.98;100.00
39129;BME280;24864;49.940;19.770;2023-01-10T04:44:00;75952.31;;;-147.98;100.00
39129;BME280;24864;49.940;19.770;2023-01-10T04:46:28;75966.84;;;-147.98;100.00
39129;BME280;24864;49.940;19.770;2023-01-10T04:48:56;75956.47;;;-147.98;100.00
39129;BME280;24864;49.940;19.770;2023-01-10T04:51:25;75958.53;;;-147.98;100.00
39129;BME280;24864;49.940;19.770;2023-01-10T04:53:53;75962.69;;;-147.98;100.00
39129;BME280;24864;49.940;19.770;2023-01-10T04:56:22;75973.09;;;-147.98;100.00
39129;BME280;24864;49.940;19.770;2023-01-10T04:58:50;75983.50;;;-147.98;100.00
39129;BME280;24864;49.940;19.770;2023-01-10T05:01:22;75991.81;;;-147.98;100.00
39129;BME280;24864;49.940;19.770;2023-01-10T05:03:53;75991.81;;;-147.98;100.00
39129;BME280;24864;49.940;19.770;2023-01-10T05:06:22;76002.19;;;-147.98;100.00
39129;BME280;24864;49.940;19.770;2023-01-10T05:08:51;76010.50;;;-147.98;100.00
39129;BME280;24864;49.940;19.770;2023-01-10T05:11:18;76000.13;;;-147.98;100.00
39129;BME280;24864;49.940;19.770;2023-01-10T05:13:46;76002.19;;;-147.98;100.00
39129;BME280;24864;49.940;19.770;2023-01-10T05:16:15;76006.34;;;-147.98;100.00
39129;BME280;24864;49.940;19.770;2023-01-10T05:18:45;76016.75;;;-147.98;100.00
39129;BME280;24864;49.940;19.770;2023-01-10T05:21:13;76016.75;;;-147.98;100.00
39129;BME280;24864;49.940;19.770;2023-01-10T05:23:41;76025.06;;;-147.98;100.00
39129;BME280;24864;49.940;19.770;2023-01-10T05:26:11;76033.38;;;-147.98;100.00
39129;BME280;24864;49.940;19.770;2023-01-10T05:28:40;76052.09;;;-147.98;100.00
39129;BME280;24864;49.940;19.770;2023-01-10T05:31:10;76047.94;;;-147.98;100.00
39129;BME280;24864;49.940;19.770;2023-01-10T05:33:39;76056.25;;;-147.98;100.00
39129;BME280;24864;49.940;19.770;2023-01-10T05:36:11;76070.81;;;-147.98;100.00
39129;BME280;24864;49.940;19.770;2023-01-10T05:38:39;76070.81;;;-147.98;100.00
39129;BME280;24864;49.940;19.770;2023-01-10T05:41:07;76083.28;;;-147.98;100.00
39129;BME280;24864;49.940;19.770;2023-01-10T05:43:36;76085.34;;;-147.98;100.00
39129;BME280;24864;49.940;19.770;2023-01-10T05:46:04;76087.44;;;-147.98;100.00
39129;BME280;24864;49.940;19.770;2023-01-10T05:48:32;76091.59;;;-147.98;100.00
39129;BME280;24864;49.940;19.770;2023-01-10T05:51:00;76095.75;;;-147.98;100.00
39129;BME280;24864;49.940;19.770;2023-01-10T05:53:29;76097.84;;;-147.98;100.00
39129;BME280;24864;49.940;19.770;2023-01-10T05:55:58;76093.69;;;-147.98;100.00
39129;BME280;24864;49.940;19.770;2023-01-10T05:58:28;76091.59;;;-147.98;100.00
39129;BME280;24864;49.940;19.770;2023-01-10T06:00:56;76099.91;;;-147.98;100.00
39129;BME280;24864;49.940;19.770;2023-01-10T06:03:25;76104.06;;;-147.98;100.00
39129;BME280;24864;49.940;19.770;2023-01-10T06:05:53;76106.16;;;-147.98;100.00
39129;BME280;24864;49.940;19.770;2023-01-10T06:08:22;76112.38;;;-147.98;100.00
39129;BME280;24864;49.940;19.770;2023-01-10T06:10:52;76122.78;;;-147.98;100.00
39129;BME280;24864;49.940;19.770;2023-01-10T06:13:20;76124.84;;;-147.98;100.00
39129;BME280;24864;49.940;19.770;2023-01-10T06:15:48;76131.09;;;-147.98;100.00
39129;BME280;24864;49.940;19.770;2023-01-10T06:18:17;76135.25;;;-147.98;100.00
39129;BME280;24864;49.940;19.770;2023-01-10T06:20:45;76135.25;;;-147.98;100.00
39129;BME280;24864;49.940;19.770;2023-01-10T06:23:13;76158.13;;;-147.98;100.00
39129;BME280;24864;49.940;19.770;2023-01-10T06:25:41;76160.19;;;-147.98;100.00
39129;BME280;24864;49.940;19.770;2023-01-10T06:28:12;76172.69;;;-147.98;100.00
39129;BME280;24864;49.940;19.770;2023-01-10T06:30:41;76178.91;;;-147.98;100.00
39129;BME280;24864;49.940;19.770;2023-01-10T06:33:10;76178.91;;;-147.98;100.00
39129;BME280;24864;49.940;19.770;2023-01-10T06:35:39;76183.06;;;-147.98;100.00
39129;BME280;24864;49.940;19.770;2023-01-10T06:38:07;76183.06;;;-147.98;100.00
39129;BME280;24864;49.940;19.770;2023-01-10T06:40:35;76191.38;;;-147.98;100.00
39129;BME280;24864;49.940;19.770;2023-01-10T06:43:03;76191.38;;;-147.98;100.00
39129;BME280;24864;49.940;19.770;2023-01-10T06:45:32;76203.84;;;-147.98;100.00
39129;BME280;24864;49.940;19.770;2023-01-10T06:48:00;76199.69;;;-147.98;100.00
39129;BME280;24864;49.940;19.770;2023-01-10T06:50:28;76203.84;;;-147.98;100.00
39129;BME280;24864;49.940;19.770;2023-01-10T06:52:59;76203.84;;;-147.98;100.00
39129;BME280;24864;49.940;19.770;2023-01-10T06:55:28;76216.34;;;-147.98;100.00
39129;BME280;24864;49.940;19.770;2023-01-10T06:57:57;76210.09;;;-147.98;100.00
39129;BME280;24864;49.940;19.770;2023-01-10T07:00:27;76195.53;;;-147.98;100.00
39129;BME280;24864;49.940;19.770;2023-01-10T07:02:58;76201.78;;;-147.98;100.00
39129;BME280;24864;49.940;19.770;2023-01-10T07:05:27;76218.41;;;-147.98;100.00
39129;BME280;24864;49.940;19.770;2023-01-10T07:07:56;76232.97;;;-147.98;100.00
39129;BME280;24864;49.940;19.770;2023-01-10T07:10:26;76230.88;;;-147.98;100.00
39129;BME280;24864;49.940;19.770;2023-01-10T07:12:55;76241.28;;;-147.98;100.00
39129;BME280;24864;49.940;19.770;2023-01-10T07:15:23;76243.34;;;-147.98;100.00
39129;BME280;24864;49.940;19.770;2023-01-10T07:17:51;76257.91;;;-147.98;100.00
39129;BME280;24864;49.940;19.770;2023-01-10T07:20:20;76257.91;;;-147.98;100.00
39129;BME280;24864;49.940;19.770;2023-01-10T07:22:52;76257.91;;;-147.98;100.00
39129;BME280;24864;49.940;19.770;2023-01-10T07:25:20;76270.38;;;-147.98;100.00
39129;BME280;24864;49.940;19.770;2023-01-10T07:27:48;76262.06;;;-147.98;100.00
39129;BME280;24864;49.940;19.770;2023-01-10T07:30:16;76266.22;;;-147.98;100.00
39129;BME280;24864;49.940;19.770;2023-01-10T07:32:44;76264.16;;;-147.98;100.00
39129;BME280;24864;49.940;19.770;2023-01-10T07:35:12;76257.91;;;-147.98;100.00
39129;BME280;24864;49.940;19.770;2023-01-10T07:37:42;76268.31;;;-147.98;100.00
39129;BME280;24864;49.940;19.770;2023-01-10T07:40:10;76280.78;;;-147.98;100.00
39129;BME280;24864;49.940;19.770;2023-01-10T07:42:39;76270.38;;;-147.98;100.00
39129;BME280;24864;49.940;19.770;2023-01-10T07:45:07;76272.47;;;-147.98;100.00
39129;BME280;24864;49.940;19.770;2023-01-10T07:47:35;76280.78;;;-147.98;100.00
39129;BME280;24864;49.940;19.770;2023-01-10T07:50:04;76291.19;;;-147.98;100.00
39129;BME280;24864;49.940;19.770;2023-01-10T07:52:32;76278.69;;;-147.98;100.00
39129;BME280;24864;49.940;19.770;2023-01-10T07:55:01;76266.22;;;-147.98;100.00
39129;BME280;24864;49.940;19.770;2023-01-10T07:57:29;76266.22;;;-147.98;100.00
39129;BME280;24864;49.940;19.770;2023-01-10T07:59:57;76270.38;;;-147.98;100.00
39129;BME280;24864;49.940;19.770;2023-01-10T08:02:25;76272.47;;;-147.98;100.00
39129;BME280;24864;49.940;19.770;2023-01-10T08:04:53;76274.53;;;-147.98;100.00
39129;BME280;24864;49.940;19.770;2023-01-10T08:07:21;76278.69;;;-147.98;100.00
39129;BME280;24864;49.940;19.770;2023-01-10T08:09:49;76278.69;;;-147.98;100.00
39129;BME280;24864;49.940;19.770;2023-01-10T08:12:19;76289.09;;;-147.98;100.00
39129;BME280;24864;49.940;19.770;2023-01-10T08:14:47;76295.34;;;-147.98;100.00
39129;BME280;24864;49.940;19.770;2023-01-10T08:17:15;76289.09;;;-147.98;100.00
39129;BME280;24864;49.940;19.770;2023-01-10T08:19:43;76291.19;;;-147.98;100.00
39129;BME280;24864;49.940;19.770;2023-01-10T08:22:11;76291.19;;;-147.98;100.00
39129;BME280;24864;49.940;19.770;2023-01-10T08:24:39;76287.03;;;-147.98;100.00
39129;BME280;24864;49.940;19.770;2023-01-10T08:27:08;76289.09;;;-147.98;100.00
39129;BME280;24864;49.940;19.770;2023-01-10T08:29:37;76299.50;;;-147.98;100.00
39129;BME280;24864;49.940;19.770;2023-01-10T08:32:05;76295.34;;;-147.98;100.00
39129;BME280;24864;49.940;19.770;2023-01-10T08:34:33;76305.72;;;-147.98;100.00
39129;BME280;24864;49.940;19.770;2023-01-10T08:37:01;76307.81;;;-147.98;100.00
39129;BME280;24864;49.940;19.770;2023-01-10T08:39:29;76297.41;;;-147.98;100.00
39129;BME280;24864;49.940;19.770;2023-01-10T08:41:57;76311.97;;;-147.98;100.00
39129;BME280;24864;49.940;19.770;2023-01-10T08:44:25;76326.53;;;-147.98;100.00
39129;BME280;24864;49.940;19.770;2023-01-10T08:46:54;76328.59;;;-147.98;100.00
39129;BME280;24864;49.940;19.770;2023-01-10T08:49:23;76343.16;;;-147.98;100.00
39129;BME280;24864;49.940;19.770;2023-01-10T08:51:51;76328.59;;;-147.98;100.00
39129;BME280;24864;49.940;19.770;2023-01-10T08:54:19;76328.59;;;-147.98;100.00
39129;BME280;24864;49.940;19.770;2023-01-10T08:56:47;76328.59;;;-147.98;100.00
39129;BME280;24864;49.940;19.770;2023-01-10T08:59:15;76324.44;;;-147.98;100.00
39129;BME280;24864;49.940;19.770;2023-01-10T09:01:43;76326.53;;;-147.98;100.00
39129;BME280;24864;49.940;19.770;2023-01-10T09:04:13;76349.41;;;-147.98;100.00
39129;BME280;24864;49.940;19.770;2023-01-10T09:06:41;76345.22;;;-147.98;100.00
39129;BME280;24864;49.940;19.770;2023-01-10T09:09:09;76339.00;;;-147.98;100.00
39129;BME280;24864;49.940;19.770;2023-01-10T09:11:37;76326.53;;;-147.98;100.00
39129;BME280;24864;49.940;19.770;2023-01-10T09:14:07;76324.44;;;-147.98;100.00
39129;BME280;24864;49.940;19.770;2023-01-10T09:16:35;76339.00;;;-147.98;100.00
39129;BME280;24864;49.940;19.770;2023-01-10T09:19:03;76324.44;;;-147.98;100.00
39129;BME280;24864;49.940;19.770;2023-01-10T09:21:32;76336.91;;;-147.98;100.00
39129;BME280;24864;49.940;19.770;2023-01-10T09:24:00;76328.59;;;-147.98;100.00
39129;BME280;24864;49.940;19.770;2023-01-10T09:26:29;76330.69;;;-147.98;100.00
39129;BME280;24864;49.940;19.770;2023-01-10T09:28:57;76330.69;;;-147.98;100.00
39129;BME280;24864;49.940;19.770;2023-01-10T09:31:25;76345.22;;;-147.98;100.00
39129;BME280;24864;49.940;19.770;2023-01-10T09:33:53;76357.72;;;-147.98;100.00
39129;BME280;24864;49.940;19.770;2023-01-10T09:36:21;76353.56;;;-147.98;100.00
39129;BME280;24864;49.940;19.770;2023-01-10T09:38:50;76349.41;;;-147.98;100.00
39129;BME280;24864;49.940;19.770;2023-01-10T09:41:32;76336.91;;;-147.98;100.00
39129;BME280;24864;49.940;19.770;2023-01-10T09:44:04;76341.06;;;-147.98;100.00
39129;BME280;24864;49.940;19.770;2023-01-10T09:46:40;76336.91;;;-147.98;100.00
39129;BME280;24864;49.940;19.770;2023-01-10T09:49:18;76341.06;;;-147.98;100.00
39129;BME280;24864;49.940;19.770;2023-01-10T09:51:49;76345.22;;;-147.98;100.00
39129;BME280;24864;49.940;19.770;2023-01-10T09:54:24;76339.00;;;-147.98;100.00
39129;BME280;24864;49.940;19.770;2023-01-10T09:56:54;76341.06;;;-147.98;100.00
39129;BME280;24864;49.940;19.770;2023-01-10T09:59:34;76357.72;;;-147.98;100.00
39129;BME280;24864;49.940;19.770;2023-01-10T10:02:13;76357.72;;;-147.98;100.00
39129;BME280;24864;49.940;19.770;2023-01-10T10:04:46;76366.03;;;-147.98;100.00
39129;BME280;24864;49.940;19.770;2023-01-10T10:07:20;76374.34;;;-147.98;100.00
39129;BME280;24864;49.940;19.770;2023-01-10T10:09:49;76372.25;;;-147.98;100.00
39129;BME280;24864;49.940;19.770;2023-01-10T10:12:25;76374.34;;;-147.98;100.00
39129;BME280;24864;49.940;19.770;2023-01-10T10:15:04;76370.19;;;-147.98;100.00
39129;BME280;24864;49.940;19.770;2023-01-10T10:17:42;76370.19;;;-147.98;100.00
39129;BME280;24864;49.940;19.770;2023-01-10T10:20:24;76376.41;;;-147.98;100.00
39129;BME280;24864;49.940;19.770;2023-01-10T10:23:06;76361.88;;;-147.98;100.00
39129;BME280;24864;49.940;19.770;2023-01-10T10:25:54;76366.03;;;-147.98;100.00
39129;BME280;24864;49.940;19.770;2023-01-10T10:28:40;76363.94;;;-147.98;100.00
39129;BME280;24864;49.940;19.770;2023-01-10T10:31:28;76361.88;;;-147.98;100.00
39129;BME280;24864;49.940;19.770;2023-01-10T10:34:06;76349.41;;;-147.98;100.00
39129;BME280;24864;49.940;19.770;2023-01-10T10:36:41;76361.88;;;-147.98;100.00
39129;BME280;24864;49.940;19.770;2023-01-10T10:39:16;76366.03;;;-147.98;100.00
39129;BME280;24864;49.940;19.770;2023-01-10T10:41:49;76366.03;;;-147.98;100.00
39129;BME280;24864;49.940;19.770;2023-01-10T10:44:29;76372.25;;;-147.98;100.00
39129;BME280;24864;49.940;19.770;2023-01-10T10:46:59;76366.03;;;-147.98;100.00
39129;BME280;24864;49.940;19.770;2023-01-10T10:49:36;76388.91;;;-147.98;100.00
39129;BME280;24864;49.940;19.770;2023-01-10T10:52:13;76382.66;;;-147.98;100.00
39129;BME280;24864;49.940;19.770;2023-01-10T10:54:44;76399.28;;;-147.98;100.00
39129;BME280;24864;49.940;19.770;2023-01-10T10:57:15;76390.97;;;-147.98;100.00
39129;BME280;24864;49.940;19.770;2023-01-10T10:59:46;76399.28;;;-147.98;100.00
39129;BME280;24864;49.940;19.770;2023-01-10T11:02:25;76390.97;;;-147.98;100.00
39129;BME280;24864;49.940;19.770;2023-01-10T11:04:56;76409.69;;;-147.98;100.00
39129;BME280;24864;49.940;19.770;2023-01-10T11:07:27;76411.75;;;-147.98;100.00
39129;BME280;24864;49.940;19.770;2023-01-10T11:09:56;76407.59;;;-147.98;100.00
39129;BME280;24864;49.940;19.770;2023-01-10T11:12:37;76409.69;;;-147.98;100.00
39129;BME280;24864;49.940;19.770;2023-01-10T11:15:08;76413.84;;;-147.98;100.00
39129;BME280;24864;49.940;19.770;2023-01-10T11:17:36;76430.47;;;-147.98;100.00
39129;BME280;24864;49.940;19.770;2023-01-10T11:20:14;76434.63;;;-147.98;100.00
39129;BME280;24864;49.940;19.770;2023-01-10T11:22:46;76430.47;;;-147.98;100.00
39129;BME280;24864;49.940;19.770;2023-01-10T11:25:16;76440.88;;;-147.98;100.00
39129;BME280;24864;49.940;19.770;2023-01-10T11:27:49;76445.03;;;-147.98;100.00
39129;BME280;24864;49.940;19.770;2023-01-10T11:30:20;76453.34;;;-147.98;100.00
39129;BME280;24864;49.940;19.770;2023-01-10T11:32:51;76449.19;;;-147.98;100.00
39129;BME280;24864;49.940;19.770;2023-01-10T11:35:22;76453.34;;;-147.98;100.00
39129;BME280;24864;49.940;19.770;2023-01-10T11:37:59;76445.03;;;-147.98;100.00
39129;BME280;24864;49.940;19.770;2023-01-10T11:40:28;76447.09;;;-147.98;100.00
39129;BME280;24864;49.940;19.770;2023-01-10T11:43:00;76445.03;;;-147.98;100.00
39129;BME280;24864;49.940;19.770;2023-01-10T11:45:52;76445.03;;;-147.98;100.00
39129;BME280;24864;49.940;19.770;2023-01-10T11:48:23;76449.19;;;-147.98;100.00
39129;BME280;24864;49.940;19.770;2023-01-10T11:51:17;76457.50;;;-147.98;100.00
39129;BME280;24864;49.940;19.770;2023-01-10T11:53:46;76459.59;;;-147.98;100.00
39129;BME280;24864;49.940;19.770;2023-01-10T11:56:25;76455.44;;;-147.98;100.00
39129;BME280;24864;49.940;19.770;2023-01-10T11:58:56;76457.50;;;-147.98;100.00
39129;BME280;24864;49.940;19.770;2023-01-10T12:01:34;76469.97;;;-147.98;100.00
39129;BME280;24864;49.940;19.770;2023-01-10T12:04:04;76472.06;;;-147.98;100.00
39129;BME280;24864;49.940;19.770;2023-01-10T12:06:33;76474.13;;;-147.98;100.00
39129;BME280;24864;49.940;19.770;2023-01-10T12:09:01;76474.13;;;-147.98;100.00
39129;BME280;24864;49.940;19.770;2023-01-10T12:11:31;76486.63;;;-147.98;100.00
39129;BME280;24864;49.940;19.770;2023-01-10T12:14:17;76484.53;;;-147.98;100.00
39129;BME280;24864;49.940;19.770;2023-01-10T12:16:46;76486.63;;;-147.98;100.00
39129;BME280;24864;49.940;19.770;2023-01-10T12:19:15;76482.44;;;-147.98;100.00
39129;BME280;24864;49.940;19.770;2023-01-10T12:21:45;76490.78;;;-147.98;100.00
39129;BME280;24864;49.940;19.770;2023-01-10T12:24:16;76494.94;;;-147.98;100.00
39129;BME280;24864;49.940;19.770;2023-01-10T12:26:47;76507.41;;;-147.98;100.00
39129;BME280;24864;49.940;19.770;2023-01-10T12:29:21;76515.72;;;-147.98;100.00
39129;BME280;24864;49.940;19.770;2023-01-10T12:31:51;76524.03;;;-147.98;100.00
39129;BME280;24864;49.940;19.770;2023-01-10T12:34:22;76528.19;;;-147.98;100.00
39129;BME280;24864;49.940;19.770;2023-01-10T12:36:58;76528.19;;;-147.98;100.00
39129;BME280;24864;49.940;19.770;2023-01-10T12:39:30;76528.19;;;-147.98;100.00
39129;BME280;24864;49.940;19.770;2023-01-10T12:42:13;76536.50;;;-147.98;100.00
39129;BME280;24864;49.940;19.770;2023-01-10T12:45:08;76536.50;;;-147.98;100.00
39129;BME280;24864;49.940;19.770;2023-01-10T12:47:47;76532.34;;;-147.98;100.00